Fairview, Ohio
Current Conditions -  °F | °C
As of 10:53 AM on Tuesday 21 Oct 2014 (Local Time) from KPHD Reporting Station
Light Rain Light Rain  
Wind Chill: 52°   Ceiling: 2100
Heat Index: 52°   Visibility: 6mi
Dew Point: 48°   Wind: 6mph
Humidity: 86%   Direction: 350°N
Pressure: 29.92"   Gusts: NA
Location:  40.06°N, 81.23°W
Report Text: KPHD 211453Z AUTO 35005KT 6SM -RA BR FEW011 BKN021 OVC031 11/09 A2992 RMK AO2 RAE25B35 SLP135 P0000 60001 T01110089 51014
Loading
Personal Weather Stations






























Interactive Weather Map
Tropical Storm Tracking
New forecast layout! Learn more

10-Day Weather Forecast

Advertisements
Track Severe Weather on mobile